Time;durP1;ratioP1;P1;durP2;ratioP2;P2;SDS_P1;SDS_P2;PMS_P1;PMS_P2;Temp;Humidity;BMP_temperature;BMP_pressure;BME280_temperature;BME280_humidity;BME280_pressure;Samples;Min_cycle;Max_cycle;Signal;HPM_P1;HPM_P2
2023/01/16 00:01:49;;;;;;;;;;;;;;;2.96;73.87;94547.09;4164221;28;19925;-43
2023/01/16 00:03:50;;;;;;;;;;;;;;;2.91;74.33;94544.06;4168877;28;20383;-44
2023/01/16 00:05:52;;;;;;;;;;;;;;;2.94;74.25;94536.03;4168685;28;20012;-44
2023/01/16 00:07:54;;;;;;;;;;;;;;;2.93;73.94;94533.59;4175047;28;19933;-42
2023/01/16 00:09:55;;;;;;;;;;;;;;;2.90;74.26;94541.56;4172259;28;19964;-45
2023/01/16 00:11:57;;;;;;;;;;;;;;;2.90;74.69;94544.16;4176499;28;19971;-47
2023/01/16 00:13:59;;;;;;;;;;;;;;;2.89;75.04;94538.16;4176864;28;19940;-46
2023/01/16 00:16:00;;;;;;;;;;;;;;;2.91;74.58;94535.47;4175528;28;20279;-47
2023/01/16 00:18:02;;;;;;;;;;;;;;;2.85;74.46;94534.97;4175514;28;20019;-45
2023/01/16 00:20:03;;;;;;;;;;;;;;;2.85;74.69;94532.41;4175562;28;19950;-44
2023/01/16 00:22:05;;;;;;;;;;;;;;;2.85;75.08;94529.81;4159602;28;19925;-45
2023/01/16 00:24:07;;;;;;;;;;;;;;;2.94;74.98;94524.88;4173710;28;19972;-44
2023/01/16 00:26:12;;;;;;;;;;;;;;;2.97;74.53;94529.81;4163206;28;19929;-44
2023/01/16 00:28:13;;;;;;;;;;;;;;;2.95;74.26;94517.00;4196628;28;19956;-45
2023/01/16 00:30:15;;;;;;;;;;;;;;;2.98;74.77;94516.75;4175558;28;19963;-44
2023/01/16 00:32:17;;;;;;;;;;;;;;;3.01;74.33;94520.88;4163297;28;19929;-46
2023/01/16 00:34:18;;;;;;;;;;;;;;;2.99;74.18;94515.00;4169613;28;19989;-46
2023/01/16 00:36:20;;;;;;;;;;;;;;;2.97;74.70;94515.13;4169659;28;19929;-46
2023/01/16 00:38:21;;;;;;;;;;;;;;;2.98;74.73;94515.94;4178230;28;19950;-43
2023/01/16 00:40:23;;;;;;;;;;;;;;;3.04;74.76;94512.88;4172356;28;19928;-46
2023/01/16 00:42:25;;;;;;;;;;;;;;;3.03;74.43;94519.00;4180238;28;19924;-47
2023/01/16 00:44:27;;;;;;;;;;;;;;;3.07;73.76;94505.69;4179826;28;19933;-45
2023/01/16 00:46:29;;;;;;;;;;;;;;;3.03;74.05;94506.06;4180361;28;19929;-42
2023/01/16 00:48:31;;;;;;;;;;;;;;;3.05;74.04;94509.34;4169641;28;20369;-44
2023/01/16 00:50:32;;;;;;;;;;;;;;;3.02;73.65;94504.41;4164211;28;19925;-44
2023/01/16 00:52:34;;;;;;;;;;;;;;;3.05;73.92;94509.34;4176470;28;19929;-43
2023/01/16 00:54:36;;;;;;;;;;;;;;;2.92;74.02;94511.22;4171594;28;20349;-44
2023/01/16 00:56:37;;;;;;;;;;;;;;;2.92;74.12;94508.66;4163449;28;19925;-45
2023/01/16 00:58:39;;;;;;;;;;;;;;;2.89;74.40;94506.31;4165439;28;19925;-49
2023/01/16 01:00:40;;;;;;;;;;;;;;;2.83;74.68;94505.81;4168600;28;19952;-45
2023/01/16 01:02:42;;;;;;;;;;;;;;;2.88;74.85;94497.69;4175825;28;20062;-45
2023/01/16 01:04:43;;;;;;;;;;;;;;;2.91;74.51;94496.66;4169214;28;19935;-44
2023/01/16 01:06:45;;;;;;;;;;;;;;;2.96;74.84;94499.72;4178624;28;19983;-45
2023/01/16 01:08:47;;;;;;;;;;;;;;;2.94;74.58;94501.59;4177389;28;20027;-46
2023/01/16 01:10:49;;;;;;;;;;;;;;;2.94;74.27;94497.22;4176744;28;19937;-45
2023/01/16 01:12:52;;;;;;;;;;;;;;;2.95;74.07;94493.72;4177460;28;19925;-44
2023/01/16 01:14:54;;;;;;;;;;;;;;;2.92;74.27;94508.66;4178126;28;20257;-47
2023/01/16 01:16:55;;;;;;;;;;;;;;;2.90;73.87;94506.16;4177839;28;19939;-44
2023/01/16 01:18:57;;;;;;;;;;;;;;;2.90;74.71;94498.41;4178987;28;20020;-44
2023/01/16 01:20:58;;;;;;;;;;;;;;;2.91;74.65;94494.06;4178718;28;20032;-44
2023/01/16 01:23:00;;;;;;;;;;;;;;;2.90;74.11;94489.81;4177409;28;20023;-44
2023/01/16 01:25:01;;;;;;;;;;;;;;;2.84;74.04;94486.78;4178331;28;19925;-44
2023/01/16 01:27:03;;;;;;;;;;;;;;;2.88;74.12;94479.59;4178493;28;19979;-44
2023/01/16 01:29:04;;;;;;;;;;;;;;;2.91;73.97;94481.97;4178777;28;19966;-44
2023/01/16 01:31:07;;;;;;;;;;;;;;;2.94;73.84;94480.88;4178145;28;20412;-43
2023/01/16 01:33:09;;;;;;;;;;;;;;;2.87;73.64;94473.59;4178330;28;19983;-44
2023/01/16 01:35:11;;;;;;;;;;;;;;;2.82;73.61;94472.31;4178510;28;20344;-45
2023/01/16 01:37:12;;;;;;;;;;;;;;;2.84;74.13;94475.63;4165360;28;19925;-44
2023/01/16 01:39:14;;;;;;;;;;;;;;;2.82;73.62;94478.31;4176867;28;20474;-45
2023/01/16 01:41:16;;;;;;;;;;;;;;;2.88;74.16;94474.41;4178028;28;19933;-46
2023/01/16 01:43:17;;;;;;;;;;;;;;;2.86;73.76;94453.84;4169047;28;20035;-43
2023/01/16 01:45:19;;;;;;;;;;;;;;;2.84;73.54;94460.09;4164635;28;19925;-44
2023/01/16 01:47:26;;;;;;;;;;;;;;;2.83;73.62;94461.00;4164860;28;19979;-45
2023/01/16 01:49:28;;;;;;;;;;;;;;;2.81;74.20;94466.31;4170156;28;20559;-45
2023/01/16 01:51:31;;;;;;;;;;;;;;;2.85;74.24;94465.13;4170035;28;20455;-44
2023/01/16 01:53:37;;;;;;;;;;;;;;;2.92;73.62;94462.06;4177961;28;19990;-45
2023/01/16 01:55:39;;;;;;;;;;;;;;;2.87;73.67;94465.00;4174661;28;20039;-44
2023/01/16 01:57:45;;;;;;;;;;;;;;;2.91;73.85;94460.44;4176210;28;19975;-46
2023/01/16 01:59:49;;;;;;;;;;;;;;;2.94;73.41;94457.59;4166304;28;20331;-46
2023/01/16 02:01:51;;;;;;;;;;;;;;;2.91;73.70;94460.44;4177790;28;20062;-44
2023/01/16 02:03:57;;;;;;;;;;;;;;;2.92;73.69;94449.13;4164398;28;19925;-43
2023/01/16 02:05:59;;;;;;;;;;;;;;;2.91;73.73;94444.91;4162358;28;20404;-43
2023/01/16 02:08:01;;;;;;;;;;;;;;;2.88;73.80;94451.13;4176158;28;19924;-44
2023/01/16 02:10:10;;;;;;;;;;;;;;;2.91;73.48;94455.25;4177909;28;20326;-44
2023/01/16 02:12:15;;;;;;;;;;;;;;;2.94;73.70;94455.00;4177918;28;20314;-44
2023/01/16 02:14:16;;;;;;;;;;;;;;;2.97;73.71;94442.66;4173496;28;20016;-43
2023/01/16 02:21:13;;;;;;;;;;;;;;;2.94;74.66;94442.06;4169702;28;19971;-45
2023/01/16 02:23:29;;;;;;;;;;;;;;;2.93;75.08;94443.84;4166302;28;20685;-44
2023/01/16 02:25:43;;;;;;;;;;;;;;;2.93;74.98;94437.84;4167822;28;19928;-45
2023/01/16 02:27:49;;;;;;;;;;;;;;;2.96;75.25;94437.59;4161847;28;20071;-46
2023/01/16 02:30:03;;;;;;;;;;;;;;;2.93;75.36;94430.09;4168391;28;19936;-45
2023/01/16 02:32:28;;;;;;;;;;;;;;;2.90;75.33;94430.31;4172708;28;20012;-46
2023/01/16 02:34:49;;;;;;;;;;;;;;;2.94;75.67;94426.56;4170255;28;19929;-44
2023/01/16 02:37:11;;;;;;;;;;;;;;;2.90;75.09;94417.38;4163217;28;20404;-44
2023/01/16 02:39:16;;;;;;;;;;;;;;;2.84;75.63;94414.34;4164380;28;19925;-47
2023/01/16 02:41:44;;;;;;;;;;;;;;;2.79;76.02;94425.97;4176524;28;19929;-46
2023/01/16 02:43:52;;;;;;;;;;;;;;;2.81;76.03;94426.69;4169064;28;20446;-44
2023/01/16 02:46:15;;;;;;;;;;;;;;;2.80;75.86;94418.09;4177736;28;20031;-44
2023/01/16 02:48:21;;;;;;;;;;;;;;;2.81;76.48;94417.16;4164005;28;19932;-44
2023/01/16 02:50:40;;;;;;;;;;;;;;;2.80;76.42;94433.63;4176136;28;20571;-44
2023/01/16 02:52:45;;;;;;;;;;;;;;;2.75;75.86;94421.97;4163025;28;20375;-45
2023/01/16 02:54:55;;;;;;;;;;;;;;;2.78;76.18;94408.81;4165983;28;19978;-46
2023/01/16 02:57:01;;;;;;;;;;;;;;;2.77;76.59;94405.38;4159406;28;19971;-45
2023/01/16 02:59:03;;;;;;;;;;;;;;;2.79;76.30;94407.88;4149098;28;20385;-44
2023/01/16 03:01:05;;;;;;;;;;;;;;;2.83;76.64;94404.91;4154437;28;19933;-44
2023/01/16 03:03:15;;;;;;;;;;;;;;;2.83;76.26;94407.50;4153493;28;19930;-44
2023/01/16 03:05:16;;;;;;;;;;;;;;;2.84;76.66;94413.53;4153469;28;19925;-44
2023/01/16 03:07:37;;;;;;;;;;;;;;;2.87;76.10;94413.28;4142153;28;20449;-45
2023/01/16 03:09:49;;;;;;;;;;;;;;;2.86;76.09;94409.88;4144682;28;20370;-44
2023/01/16 03:12:05;;;;;;;;;;;;;;;2.84;76.29;94404.00;4157716;28;19936;-45
2023/01/16 03:14:13;;;;;;;;;;;;;;;2.84;76.46;94398.00;4148965;28;19972;-45
2023/01/16 03:16:17;;;;;;;;;;;;;;;2.79;75.73;94390.56;4160864;28;19929;-44
2023/01/16 03:18:37;;;;;;;;;;;;;;;2.79;75.63;94387.16;4160510;28;19935;-50
2023/01/16 03:20:42;;;;;;;;;;;;;;;2.75;75.98;94384.00;4153118;28;19925;-46
2023/01/16 03:22:54;;;;;;;;;;;;;;;2.61;76.22;94384.25;4155518;28;19960;-46
2023/01/16 03:24:59;;;;;;;;;;;;;;;2.63;76.69;94377.19;4146410;28;19979;-45
2023/01/16 03:27:03;;;;;;;;;;;;;;;2.70;76.96;94377.53;4152887;28;20627;-44
2023/01/16 03:29:05;;;;;;;;;;;;;;;2.70;76.55;94368.00;4155555;28;19995;-44
2023/01/16 03:31:12;;;;;;;;;;;;;;;2.72;76.56;94376.47;4146065;28;20394;-44
2023/01/16 03:33:18;;;;;;;;;;;;;;;2.71;76.34;94374.84;4144338;28;19925;-46
2023/01/16 03:35:21;;;;;;;;;;;;;;;2.76;76.27;94369.31;4154166;28;19925;-45
2023/01/16 03:37:36;;;;;;;;;;;;;;;2.76;76.18;94371.91;4145293;28;20305;-42
2023/01/16 03:39:46;;;;;;;;;;;;;;;2.71;76.55;94356.75;4156477;28;19925;-44
2023/01/16 03:41:47;;;;;;;;;;;;;;;2.76;76.27;94356.38;4154202;28;20011;-44
2023/01/16 03:43:49;;;;;;;;;;;;;;;2.77;76.38;94352.84;4149982;28;19955;-44
2023/01/16 03:45:55;;;;;;;;;;;;;;;2.84;76.28;94346.25;4155829;28;20677;-46
2023/01/16 03:48:02;;;;;;;;;;;;;;;2.91;76.15;94344.00;4158967;28;20315;-45
2023/01/16 03:50:05;;;;;;;;;;;;;;;2.93;75.98;94336.94;4152581;28;19965;-44
2023/01/16 03:52:06;;;;;;;;;;;;;;;2.89;75.86;94338.94;4158303;28;19972;-44
2023/01/16 03:54:14;;;;;;;;;;;;;;;2.84;76.25;94341.09;4158165;28;19944;-45
2023/01/16 03:56:16;;;;;;;;;;;;;;;2.82;76.25;94338.63;4159874;28;19933;-44
2023/01/16 03:58:44;;;;;;;;;;;;;;;2.84;76.25;94339.31;4160421;28;19925;-46
2023/01/16 04:01:21;;;;;;;;;;;;;;;2.84;75.93;94336.72;4148089;28;20468;-46
2023/01/16 04:03:25;;;;;;;;;;;;;;;2.85;76.30;94335.78;4141383;28;19926;-46
2023/01/16 04:05:30;;;;;;;;;;;;;;;2.80;75.94;94335.31;4141379;28;19925;-46
2023/01/16 04:07:37;;;;;;;;;;;;;;;2.83;76.13;94344.59;4173814;28;19929;-45
2023/01/16 04:09:49;;;;;;;;;;;;;;;2.79;76.05;94336.25;4152406;28;19933;-45
2023/01/16 04:11:51;;;;;;;;;;;;;;;2.80;76.25;94334.50;4157123;28;19960;-46
2023/01/16 04:13:53;;;;;;;;;;;;;;;2.77;76.08;94334.72;4152067;28;19929;-45
2023/01/16 04:15:56;;;;;;;;;;;;;;;2.74;76.32;94334.97;4194780;28;19929;-43
2023/01/16 04:17:58;;;;;;;;;;;;;;;2.60;76.37;94329.13;4178445;28;20011;-44
2023/01/16 04:19:59;;;;;;;;;;;;;;;2.44;76.89;94324.31;4181580;28;20391;-45
2023/01/16 04:22:04;;;;;;;;;;;;;;;2.34;77.28;94333.72;4161908;28;20374;-43
2023/01/16 04:24:06;;;;;;;;;;;;;;;2.18;77.94;94331.50;4145143;28;20289;-43
2023/01/16 04:26:07;;;;;;;;;;;;;;;1.31;80.01;94332.84;4162999;28;19932;-44
2023/01/16 04:28:09;;;;;;;;;;;;;;;1.11;81.43;94334.31;4152640;28;20448;-44
2023/01/16 04:30:11;;;;;;;;;;;;;;;1.10;82.14;94330.91;4162216;28;19925;-45
2023/01/16 04:32:13;;;;;;;;;;;;;;;1.32;82.84;94329.34;4162500;28;19955;-44
2023/01/16 04:34:14;;;;;;;;;;;;;;;1.50;82.22;94325.41;4162886;28;20048;-44
2023/01/16 04:36:16;;;;;;;;;;;;;;;1.49;81.38;94322.97;4162861;28;19929;-44
2023/01/16 04:38:17;;;;;;;;;;;;;;;1.55;81.22;94325.06;4162200;28;20148;-45
2023/01/16 04:40:19;;;;;;;;;;;;;;;1.70;81.48;94318.78;4162102;28;20388;-43
2023/01/16 04:42:20;;;;;;;;;;;;;;;1.85;80.96;94311.66;4161762;28;20347;-44
2023/01/16 04:44:23;;;;;;;;;;;;;;;1.90;80.45;94313.88;4151425;28;20009;-44
2023/01/16 04:46:25;;;;;;;;;;;;;;;2.01;79.80;94317.28;4154874;28;20028;-44
2023/01/16 04:48:26;;;;;;;;;;;;;;;2.07;78.89;94317.75;4147029;28;19925;-43
2023/01/16 04:50:28;;;;;;;;;;;;;;;2.15;79.11;94315.41;4161297;28;19929;-44
2023/01/16 04:52:29;;;;;;;;;;;;;;;2.23;78.93;94308.69;4156609;28;20646;-45
2023/01/16 04:54:31;;;;;;;;;;;;;;;2.30;78.52;94303.88;4146345;28;19925;-44
2023/01/16 04:56:33;;;;;;;;;;;;;;;2.41;77.93;94314.22;4157780;28;19965;-42
2023/01/16 04:58:34;;;;;;;;;;;;;;;2.44;77.27;94308.81;4162258;28;19925;-44
2023/01/16 05:00:36;;;;;;;;;;;;;;;2.45;76.91;94305.28;4162323;28;20107;-44
2023/01/16 05:02:37;;;;;;;;;;;;;;;2.43;76.81;94307.16;4148369;28;19936;-45
2023/01/16 05:04:39;;;;;;;;;;;;;;;2.41;77.26;94309.06;4162393;28;20347;-47
2023/01/16 05:06:41;;;;;;;;;;;;;;;2.44;77.13;94310.56;4148663;28;19964;-43
2023/01/16 05:08:42;;;;;;;;;;;;;;;2.44;77.19;94301.03;4162839;28;19925;-46
2023/01/16 05:10:44;;;;;;;;;;;;;;;2.44;76.96;94303.63;4153964;28;20423;-45
2023/01/16 05:12:45;;;;;;;;;;;;;;;2.46;76.50;94312.09;4146915;28;20251;-46
2023/01/16 05:14:47;;;;;;;;;;;;;;;2.08;77.02;94302.13;4156033;28;19929;-45
2023/01/16 05:16:48;;;;;;;;;;;;;;;1.74;78.57;94301.28;4162842;28;20015;-47
2023/01/16 05:18:50;;;;;;;;;;;;;;;1.76;79.12;94299.41;4149675;28;19957;-43
2023/01/16 05:20:51;;;;;;;;;;;;;;;1.84;79.68;94292.72;4162581;28;20028;-45
2023/01/16 05:22:53;;;;;;;;;;;;;;;1.91;79.52;94295.66;4157948;28;20013;-48
2023/01/16 05:24:54;;;;;;;;;;;;;;;1.95;79.11;94293.66;4155850;28;20263;-45
2023/01/16 05:26:56;;;;;;;;;;;;;;;1.96;79.12;94285.81;4158497;28;19968;-42
2023/01/16 05:28:58;;;;;;;;;;;;;;;1.99;78.59;94295.09;4152843;28;19929;-46
2023/01/16 05:31:00;;;;;;;;;;;;;;;2.06;78.53;94288.50;4155750;28;20269;-46
2023/01/16 05:33:02;;;;;;;;;;;;;;;2.14;78.28;94287.91;4153658;28;19926;-46
2023/01/16 05:35:03;;;;;;;;;;;;;;;2.16;77.86;94273.94;4162350;28;19933;-45
2023/01/16 05:37:05;;;;;;;;;;;;;;;2.22;77.77;94275.25;4151488;28;19999;-46
2023/01/16 05:39:06;;;;;;;;;;;;;;;2.23;77.52;94261.34;4146157;28;19933;-45
2023/01/16 05:41:08;;;;;;;;;;;;;;;2.22;77.27;94263.13;4161610;28;20326;-45
2023/01/16 05:43:10;;;;;;;;;;;;;;;2.25;77.21;94268.03;4162155;28;19929;-45
2023/01/16 05:45:11;;;;;;;;;;;;;;;2.31;77.06;94271.94;4154877;28;19929;-46
2023/01/16 05:47:13;;;;;;;;;;;;;;;2.36;77.09;94271.56;4145528;28;19956;-43
2023/01/16 05:49:14;;;;;;;;;;;;;;;2.37;76.92;94275.81;4148691;28;20339;-45
2023/01/16 05:51:16;;;;;;;;;;;;;;;2.32;76.49;94273.56;4148988;28;19932;-44
2023/01/16 05:53:18;;;;;;;;;;;;;;;2.36;76.81;94282.72;4153016;28;19956;-47
2023/01/16 05:55:19;;;;;;;;;;;;;;;2.35;76.76;94277.69;4160882;28;19925;-45
2023/01/16 05:57:22;;;;;;;;;;;;;;;2.31;76.92;94266.75;4152091;28;19933;-44
2023/01/16 05:59:23;;;;;;;;;;;;;;;1.74;78.13;94272.88;4149544;28;19925;-44
2023/01/16 06:01:25;;;;;;;;;;;;;;;1.61;79.21;94273.81;4148581;28;19926;-44
2023/01/16 06:03:26;;;;;;;;;;;;;;;1.61;79.74;94272.97;4146635;28;19933;-45
2023/01/16 06:05:28;;;;;;;;;;;;;;;1.68;80.32;94256.09;4150930;28;20023;-42
2023/01/16 06:07:30;;;;;;;;;;;;;;;1.72;79.87;94257.50;4160970;28;19925;-44
2023/01/16 06:09:31;;;;;;;;;;;;;;;1.83;79.80;94256.69;4155200;28;20358;-44
2023/01/16 06:11:33;;;;;;;;;;;;;;;1.95;79.71;94255.72;4157609;28;19926;-45
2023/01/16 06:13:34;;;;;;;;;;;;;;;2.03;79.00;94253.38;4161236;28;19925;-46
2023/01/16 06:15:36;;;;;;;;;;;;;;;2.20;78.60;94246.09;4158225;28;20183;-44
2023/01/16 06:17:37;;;;;;;;;;;;;;;2.33;78.37;94249.38;4154818;28;20293;-45
2023/01/16 06:19:39;;;;;;;;;;;;;;;2.20;76.90;94249.50;4161132;28;19972;-45
2023/01/16 06:21:41;;;;;;;;;;;;;;;2.15;77.55;94245.63;4160743;28;19925;-44
2023/01/16 06:23:42;;;;;;;;;;;;;;;2.21;78.17;94250.31;4153826;28;20359;-44
2023/01/16 06:25:47;;;;;;;;;;;;;;;2.32;78.28;94254.66;4154214;28;20414;-44
2023/01/16 06:27:49;;;;;;;;;;;;;;;2.41;77.80;94259.94;4148151;28;20318;-45
2023/01/16 06:29:51;;;;;;;;;;;;;;;2.51;77.31;94259.19;4160645;28;19929;-44
2023/01/16 06:31:52;;;;;;;;;;;;;;;2.59;76.73;94262.00;4161706;28;19926;-44
2023/01/16 06:33:54;;;;;;;;;;;;;;;2.64;76.64;94270.22;4160547;28;19999;-43
2023/01/16 06:35:55;;;;;;;;;;;;;;;2.76;76.68;94271.03;4157302;28;20420;-45
2023/01/16 06:37:57;;;;;;;;;;;;;;;2.71;76.34;94273.13;4159813;28;19929;-48
2023/01/16 06:39:59;;;;;;;;;;;;;;;2.15;77.02;94271.47;4158347;28;19936;-49
2023/01/16 06:42:04;;;;;;;;;;;;;;;2.13;77.61;94268.19;4160823;28;19925;-45
2023/01/16 06:44:06;;;;;;;;;;;;;;;2.21;77.88;94271.00;4150358;28;19979;-51
2023/01/16 06:46:07;;;;;;;;;;;;;;;1.76;78.47;94266.63;4160450;28;20369;-44
2023/01/16 06:48:09;;;;;;;;;;;;;;;1.72;78.88;94257.50;4159909;28;19936;-47
2023/01/16 06:50:10;;;;;;;;;;;;;;;1.78;79.24;94253.63;4158334;28;19925;-44
2023/01/16 06:52:12;;;;;;;;;;;;;;;1.99;80.50;94244.22;4155969;28;19951;-46
2023/01/16 06:54:13;;;;;;;;;;;;;;;2.16;79.55;94242.13;4157452;28;19972;-50
2023/01/16 06:56:17;;;;;;;;;;;;;;;2.28;78.77;94248.91;4158201;28;19990;-45
2023/01/16 06:58:18;;;;;;;;;;;;;;;2.44;78.11;94264.03;4158142;28;19931;-44
2023/01/16 07:00:20;;;;;;;;;;;;;;;2.58;77.63;94258.59;4158388;28;20008;-46
2023/01/16 07:02:21;;;;;;;;;;;;;;;2.72;77.20;94254.91;4147613;28;20082;-44
2023/01/16 07:04:23;;;;;;;;;;;;;;;2.83;76.81;94251.47;4151993;28;19925;-44
2023/01/16 07:06:24;;;;;;;;;;;;;;;2.87;76.69;94253.69;4158271;28;19939;-43
2023/01/16 07:08:26;;;;;;;;;;;;;;;2.97;76.46;94250.34;4154635;28;19933;-45
2023/01/16 07:10:28;;;;;;;;;;;;;;;3.06;75.65;94254.78;4159667;28;19964;-48
2023/01/16 07:12:29;;;;;;;;;;;;;;;3.13;75.46;94258.53;4159514;28;19929;-45
2023/01/16 07:23:54;;;;;;;;;;;;;;;3.45;74.33;94242.94;4151473;28;20297;-60
2023/01/16 07:25:55;;;;;;;;;;;;;;;3.48;74.47;94258.22;4159807;28;19925;-59
2023/01/16 07:27:57;;;;;;;;;;;;;;;3.49;74.23;94246.91;4159795;28;19933;-59
2023/01/16 07:29:58;;;;;;;;;;;;;;;3.56;74.37;94244.63;4159586;28;19932;-59
2023/01/16 07:32:00;;;;;;;;;;;;;;;3.63;74.31;94244.94;4160177;28;20304;-59
2023/01/16 07:34:01;;;;;;;;;;;;;;;3.60;74.19;94238.25;4159217;28;19925;-61
2023/01/16 07:36:03;;;;;;;;;;;;;;;3.60;73.75;94240.03;4145473;28;19929;-60
2023/01/16 07:38:05;;;;;;;;;;;;;;;3.58;74.10;94237.56;4145997;28;19934;-61
2023/01/16 07:40:07;;;;;;;;;;;;;;;3.61;73.54;94247.66;4148941;28;20035;-61
2023/01/16 07:42:08;;;;;;;;;;;;;;;3.59;73.68;94233.19;4158129;28;19940;-59
2023/01/16 07:44:10;;;;;;;;;;;;;;;3.60;74.19;94232.25;4158807;28;19964;-60
2023/01/16 07:46:11;;;;;;;;;;;;;;;3.59;74.16;94228.84;4159347;28;19978;-60
2023/01/16 07:48:13;;;;;;;;;;;;;;;3.65;74.13;94230.09;4163606;28;20354;-60
2023/01/16 07:50:14;;;;;;;;;;;;;;;3.67;73.42;94225.59;4162181;28;20301;-59
2023/01/16 07:52:17;;;;;;;;;;;;;;;3.71;73.75;94215.81;4159451;28;19972;-62
2023/01/16 07:54:18;;;;;;;;;;;;;;;3.75;73.75;94217.19;4150308;28;19947;-62
2023/01/16 07:56:20;;;;;;;;;;;;;;;3.78;74.01;94201.38;4163381;28;19940;-59
2023/01/16 07:58:22;;;;;;;;;;;;;;;3.86;73.39;94204.16;4163341;28;19979;-59
2023/01/16 08:00:24;;;;;;;;;;;;;;;3.95;73.56;94187.81;4162308;28;19952;-61
2023/01/16 08:02:25;;;;;;;;;;;;;;;3.94;72.60;94183.59;4163740;28;19932;-60
2023/01/16 08:04:27;;;;;;;;;;;;;;;3.91;73.09;94189.03;4154910;28;19940;-61
2023/01/16 08:06:32;;;;;;;;;;;;;;;3.93;72.90;94183.72;4157721;28;19932;-59
2023/01/16 08:08:34;;;;;;;;;;;;;;;3.95;73.29;94202.53;4160314;28;19947;-61
2023/01/16 08:10:35;;;;;;;;;;;;;;;3.98;73.15;94203.13;4161680;28;19925;-60
2023/01/16 08:12:38;;;;;;;;;;;;;;;3.93;71.81;94210.44;4162729;28;19976;-61
2023/01/16 08:14:39;;;;;;;;;;;;;;;3.77;72.27;94199.75;4161972;28;20487;-60
2023/01/16 08:16:41;;;;;;;;;;;;;;;3.74;72.15;94211.16;4162040;28;20361;-61
2023/01/16 08:18:42;;;;;;;;;;;;;;;3.72;72.92;94209.66;4162422;28;19925;-59
2023/01/16 08:20:44;;;;;;;;;;;;;;;3.61;72.45;94211.38;4162618;28;19941;-60
2023/01/16 08:22:47;;;;;;;;;;;;;;;3.22;73.09;94220.72;4162649;28;19933;-60
2023/01/16 08:24:48;;;;;;;;;;;;;;;3.12;74.95;94215.47;4162914;28;19937;-61
2023/01/16 08:26:50;;;;;;;;;;;;;;;3.30;75.43;94218.31;4157128;28;19930;-61
2023/01/16 08:28:52;;;;;;;;;;;;;;;3.49;74.72;94221.00;4149371;28;19932;-59
2023/01/16 08:30:54;;;;;;;;;;;;;;;3.65;74.01;94207.59;4159749;28;19925;-61
2023/01/16 08:32:59;;;;;;;;;;;;;;;3.84;73.63;94204.28;4160145;28;20141;-60
2023/01/16 08:35:00;;;;;;;;;;;;;;;4.05;72.84;94190.44;4146420;28;19978;-59
2023/01/16 08:37:04;;;;;;;;;;;;;;;4.16;71.83;94182.56;4155870;28;20393;-58
2023/01/16 08:39:05;;;;;;;;;;;;;;;4.20;71.83;94183.13;4158455;28;20361;-59
2023/01/16 08:51:21;;;;;;;;;;;;;;;4.00;71.64;94169.25;4148807;28;19930;-61
2023/01/16 08:52:49;;;;;;;;;;;;;;;4.18;71.84;94177.25;4161886;28;19925;-45
2023/01/16 08:54:50;;;;;;;;;;;;;;;4.08;71.66;94183.22;4162722;28;20015;-46
2023/01/16 08:56:52;;;;;;;;;;;;;;;4.03;71.60;94179.38;4151959;28;20409;-45
2023/01/16 08:58:53;;;;;;;;;;;;;;;4.03;71.87;94177.59;4159723;28;20005;-47
2023/01/16 09:00:55;;;;;;;;;;;;;;;4.09;71.97;94184.84;4161600;28;20373;-47
2023/01/16 09:02:59;;;;;;;;;;;;;;;4.23;71.85;94175.06;4162473;28;20018;-44
2023/01/16 09:05:00;;;;;;;;;;;;;;;4.30;71.60;94171.81;4158513;28;19957;-45
2023/01/16 09:07:02;;;;;;;;;;;;;;;4.38;70.92;94163.34;4151694;28;19930;-44
2023/01/16 09:09:04;;;;;;;;;;;;;;;4.50;72.02;94162.28;4145888;28;19949;-45
2023/01/16 09:15:46;;;;;;;;;;;;;;;4.59;69.99;94155.44;4160627;28;19932;-48
2023/01/16 09:17:48;;;;;;;;;;;;;;;4.64;70.72;94153.25;4162548;28;19968;-45
2023/01/16 09:19:50;;;;;;;;;;;;;;;4.68;69.34;94146.84;4161445;28;20008;-46
2023/01/16 09:21:51;;;;;;;;;;;;;;;4.72;69.39;94137.84;4150226;28;20433;-45
2023/01/16 09:23:53;;;;;;;;;;;;;;;4.77;69.40;94137.41;4154553;28;19926;-45
2023/01/16 09:25:55;;;;;;;;;;;;;;;4.85;68.74;94139.34;4146328;28;19995;-45
2023/01/16 09:27:57;;;;;;;;;;;;;;;4.87;68.32;94125.25;4147070;28;20456;-44
2023/01/16 09:29:58;;;;;;;;;;;;;;;4.87;68.62;94125.25;4146138;28;19941;-46
2023/01/16 09:32:07;;;;;;;;;;;;;;;4.95;68.44;94132.38;4146729;28;20512;-44
2023/01/16 09:34:08;;;;;;;;;;;;;;;5.03;67.95;94118.69;4146939;28;19981;-47
2023/01/16 09:36:10;;;;;;;;;;;;;;;5.06;67.80;94114.03;4146291;28;19925;-45
2023/01/16 09:38:12;;;;;;;;;;;;;;;5.14;67.73;94118.50;4150037;28;19925;-47
2023/01/16 09:40:18;;;;;;;;;;;;;;;5.18;67.67;94124.25;4158875;28;19961;-46
2023/01/16 09:44:44;;;;;;;;;;;;;;;5.32;67.44;94114.22;4158307;28;20023;-47
2023/01/16 09:46:47;;;;;;;;;;;;;;;5.39;67.26;94111.06;4149080;28;19926;-47
2023/01/16 09:49:15;;;;;;;;;;;;;;;5.42;67.75;94101.22;4159031;28;19947;-44
2023/01/16 09:51:18;;;;;;;;;;;;;;;5.49;66.88;94096.28;4149932;28;20366;-46
2023/01/16 10:00:34;;;;;;;;;;;;;;;5.68;67.09;94085.00;4148819;28;19925;-43
2023/01/16 10:02:36;;;;;;;;;;;;;;;5.70;66.06;94093.44;4147399;28;19934;-46
2023/01/16 10:04:37;;;;;;;;;;;;;;;5.58;66.01;94090.22;4155143;28;19936;-46
2023/01/16 10:06:41;;;;;;;;;;;;;;;5.22;66.73;94086.66;4150685;28;19926;-46
2023/01/16 10:08:49;;;;;;;;;;;;;;;4.97;67.31;94075.09;4155972;28;19963;-42
2023/01/16 10:10:53;;;;;;;;;;;;;;;4.81;68.15;94071.31;4155223;28;19929;-45
2023/01/16 10:13:01;;;;;;;;;;;;;;;4.67;68.10;94064.78;4157100;28;19926;-45
2023/01/16 10:15:21;;;;;;;;;;;;;;;4.80;68.22;94048.13;4156674;28;19933;-44
2023/01/16 10:17:23;;;;;;;;;;;;;;;4.45;68.83;94050.34;4152704;28;19925;-45
2023/01/16 10:19:27;;;;;;;;;;;;;;;4.57;69.27;94053.59;4161584;28;19925;-45
2023/01/16 10:21:31;;;;;;;;;;;;;;;4.76;68.82;94042.38;4147386;28;19929;-44
2023/01/16 10:23:46;;;;;;;;;;;;;;;4.99;69.20;94039.44;4159698;28;19925;-43
2023/01/16 10:25:53;;;;;;;;;;;;;;;5.13;67.62;94029.41;4158815;28;19933;-46
2023/01/16 10:28:02;;;;;;;;;;;;;;;5.13;68.05;94032.00;4159316;28;19925;-45
2023/01/16 10:30:14;;;;;;;;;;;;;;;5.20;67.73;94024.47;4161671;28;19988;-44
2023/01/16 10:32:16;;;;;;;;;;;;;;;5.19;67.47;94019.44;4158870;28;19925;-46
2023/01/16 10:34:23;;;;;;;;;;;;;;;5.24;67.28;94010.25;4145056;28;19968;-44
2023/01/16 10:36:26;;;;;;;;;;;;;;;5.41;67.29;94000.06;4160640;28;19975;-46
2023/01/16 10:38:43;;;;;;;;;;;;;;;5.57;67.08;94009.81;4159507;28;19947;-49
2023/01/16 10:40:46;;;;;;;;;;;;;;;5.68;66.24;94007.84;4160279;28;19925;-45
2023/01/16 10:49:56;;;;;;;;;;;;;;;5.87;66.34;93982.66;4161487;28;19952;-47
2023/01/16 10:51:58;;;;;;;;;;;;;;;5.83;65.59;93966.56;4158932;28;20393;-43
2023/01/16 10:54:00;;;;;;;;;;;;;;;5.98;65.50;93964.31;4157191;28;20021;-47
2023/01/16 10:56:01;;;;;;;;;;;;;;;6.19;65.63;93960.56;4160597;28;20278;-46
2023/01/16 10:58:04;;;;;;;;;;;;;;;6.34;64.47;93957.25;4153269;28;20008;-47
2023/01/16 11:00:08;;;;;;;;;;;;;;;6.36;64.15;93946.72;4145466;28;20413;-47
2023/01/16 11:02:45;;;;;;;;;;;;;;;6.38;65.34;93947.38;4144383;28;19981;-43
2023/01/16 11:04:46;;;;;;;;;;;;;;;6.62;65.05;93949.31;4174386;28;20004;-46
2023/01/16 11:06:50;;;;;;;;;;;;;;;6.81;64.31;93937.88;4154463;28;19964;-47
2023/01/16 11:08:52;;;;;;;;;;;;;;;6.51;63.58;93916.56;4157663;28;19929;-46
2023/01/16 11:10:54;;;;;;;;;;;;;;;6.16;65.13;93914.88;4151420;28;19925;-46
2023/01/16 11:20:03;;;;;;;;;;;;;;;6.33;64.52;93934.00;4187118;28;19968;-48
2023/01/16 11:22:11;;;;;;;;;;;;;;;6.03;65.03;93932.66;4159493;28;20215;-47
2023/01/16 11:24:12;;;;;;;;;;;;;;;5.61;66.26;93930.59;4158929;28;20086;-47
2023/01/16 11:26:14;;;;;;;;;;;;;;;5.66;66.84;93926.63;4159267;28;19933;-44
2023/01/16 11:28:33;;;;;;;;;;;;;;;5.97;66.63;93922.84;4158989;28;19925;-46
2023/01/16 11:30:38;;;;;;;;;;;;;;;6.01;66.04;93917.19;4159009;28;20330;-45
2023/01/16 11:32:47;;;;;;;;;;;;;;;5.89;66.08;93911.41;4158626;28;20267;-47
2023/01/16 11:34:49;;;;;;;;;;;;;;;6.21;65.67;93917.00;4159490;28;20347;-46
2023/01/16 11:36:51;;;;;;;;;;;;;;;6.30;65.14;93908.28;4159807;28;19979;-46
2023/01/16 11:38:52;;;;;;;;;;;;;;;6.17;64.92;93911.28;4158325;28;20154;-47
2023/01/16 11:40:58;;;;;;;;;;;;;;;6.29;64.87;93904.88;4150406;28;20325;-45
2023/01/16 11:47:41;;;;;;;;;;;;;;;5.73;65.86;93893.84;4156312;28;19932;-45
2023/01/16 11:49:50;;;;;;;;;;;;;;;5.53;67.33;93898.41;4151955;28;19975;-51
2023/01/16 11:51:52;;;;;;;;;;;;;;;5.74;66.77;93885.13;4150851;28;20360;-47